Time;durP1;ratioP1;P1;durP2;ratioP2;P2;SDS_P1;SDS_P2;PMS_P1;PMS_P2;Temp;Humidity;BMP_temperature;BMP_pressure;BME280_temperature;BME280_humidity;BME280_pressure;Samples;Min_cycle;Max_cycle;Signal;HPM_P1;HPM_P2
2022/04/30 00:01:09;;;;;;;6.90;6.07;;;15.00;59.70;;;;;;7380122;19;20753;-47
2022/04/30 00:03:39;;;;;;;8.87;6.20;;;15.10;59.90;;;;;;7381259;19;20383;-48
2022/04/30 00:06:11;;;;;;;6.60;4.90;;;15.10;59.40;;;;;;7381557;19;20464;-48
2022/04/30 00:08:40;;;;;;;5.87;4.70;;;15.00;59.50;;;;;;7382285;19;21016;-48
2022/04/30 00:11:13;;;;;;;6.53;5.50;;;15.00;60.20;;;;;;7382391;19;20399;-47
2022/04/30 00:13:47;;;;;;;6.40;5.60;;;15.10;60.70;;;;;;7380551;19;20419;-49
2022/04/30 00:16:19;;;;;;;9.20;6.37;;;15.10;60.50;;;;;;7379761;19;20404;-47
2022/04/30 00:18:50;;;;;;;7.00;5.80;;;15.20;61.10;;;;;;7376726;19;20436;-48
2022/04/30 00:21:20;;;;;;;6.50;5.40;;;15.10;61.10;;;;;;7382319;19;20423;-48
2022/04/30 00:23:55;;;;;;;6.23;5.30;;;14.90;61.20;;;;;;7375177;19;21000;-47
2022/04/30 00:26:25;;;;;;;5.23;4.83;;;14.90;60.60;;;;;;7377487;19;20364;-48
2022/04/30 00:29:00;;;;;;;9.20;5.63;;;15.00;60.00;;;;;;7377891;19;20411;-48
2022/04/30 00:31:29;;;;;;;6.40;5.53;;;15.10;60.60;;;;;;7376071;19;20359;-48
2022/04/30 00:34:01;;;;;;;6.87;6.27;;;15.20;60.70;;;;;;7378990;19;20485;-48
2022/04/30 00:36:31;;;;;;;6.20;5.57;;;15.20;60.70;;;;;;7381416;19;20372;-48
2022/04/30 00:39:00;;;;;;;8.53;6.43;;;15.20;60.60;;;;;;7381753;19;20372;-48
2022/04/30 00:41:32;;;;;;;7.40;6.07;;;15.20;60.50;;;;;;7381384;19;20412;-48
2022/04/30 00:44:04;;;;;;;8.77;7.20;;;15.20;61.00;;;;;;7383174;19;20520;-49
2022/04/30 00:46:33;;;;;;;9.00;7.07;;;15.20;60.70;;;;;;7377027;19;20380;-48
2022/04/30 00:49:03;;;;;;;8.77;7.57;;;15.20;60.50;;;;;;7379174;19;20391;-48
2022/04/30 00:51:36;;;;;;;7.77;6.53;;;15.30;59.90;;;;;;7380351;19;20764;-48
2022/04/30 00:54:09;;;;;;;9.17;8.30;;;15.30;58.10;;;;;;7380429;19;20388;-48
2022/04/30 00:56:47;;;;;;;8.40;7.53;;;15.40;57.80;;;;;;7381759;19;20494;-49
2022/04/30 00:59:20;;;;;;;9.33;7.60;;;15.40;57.20;;;;;;7377575;19;21143;-48
2022/04/30 01:01:59;;;;;;;8.53;7.83;;;15.40;56.70;;;;;;7379151;19;21365;-48
2022/04/30 01:04:59;;;;;;;8.67;7.87;;;15.40;56.90;;;;;;7377646;19;20389;-48
2022/04/30 01:07:32;;;;;;;11.83;8.57;;;15.40;57.10;;;;;;7377868;19;20454;-48
2022/04/30 01:10:02;;;;;;;8.90;8.00;;;15.40;57.10;;;;;;7380757;19;20368;-48
2022/04/30 01:12:34;;;;;;;20.73;10.20;;;15.50;57.20;;;;;;7379645;19;20392;-48
2022/04/30 01:15:08;;;;;;;9.83;8.77;;;15.50;57.40;;;;;;7377929;19;20957;-48
2022/04/30 01:17:39;;;;;;;8.87;7.77;;;15.40;58.10;;;;;;7377005;19;20986;-47
2022/04/30 01:20:13;;;;;;;12.90;10.07;;;15.40;58.20;;;;;;7376075;19;20480;-48
2022/04/30 01:23:02;;;;;;;13.47;10.17;;;15.50;59.10;;;;;;7376030;19;20423;-48
2022/04/30 01:25:37;;;;;;;11.40;9.70;;;15.40;59.70;;;;;;7376298;19;20368;-48
2022/04/30 01:28:10;;;;;;;15.30;10.73;;;15.40;60.30;;;;;;7378935;19;20946;-48
2022/04/30 01:30:42;;;;;;;14.47;10.70;;;15.40;61.10;;;;;;7376347;19;20408;-48
2022/04/30 01:39:00;;;;;;;16.50;12.03;;;15.50;62.50;;;;;;7379891;19;20416;-48
2022/04/30 01:41:29;;;;;;;23.63;14.03;;;15.50;63.80;;;;;;7378640;19;21258;-48
2022/04/30 01:44:01;;;;;;;21.23;13.60;;;15.40;65.00;;;;;;7379492;19;20420;-50
2022/04/30 01:46:30;;;;;;;25.70;13.60;;;15.40;65.50;;;;;;7377309;19;20824;-48
2022/04/30 01:49:03;;;;;;;20.00;13.97;;;15.30;65.90;;;;;;7379897;19;20380;-49
2022/04/30 01:51:35;;;;;;;24.00;13.43;;;15.30;66.60;;;;;;7375588;19;20443;-48
2022/04/30 01:54:07;;;;;;;24.77;15.73;;;15.30;66.70;;;;;;7380380;19;20417;-48
2022/04/30 01:56:39;;;;;;;21.93;14.13;;;15.40;67.00;;;;;;7378705;19;20386;-48
2022/04/30 01:59:16;;;;;;;19.30;12.97;;;15.20;67.60;;;;;;7378764;19;20431;-48
2022/04/30 02:01:50;;;;;;;20.83;14.33;;;15.20;68.20;;;;;;7376346;19;20360;-48
2022/04/30 02:04:25;;;;;;;19.97;13.67;;;15.30;68.00;;;;;;7376032;19;20376;-48
2022/04/30 02:07:02;;;;;;;23.60;15.40;;;15.40;68.00;;;;;;7376159;19;20376;-48
2022/04/30 02:09:36;;;;;;;22.17;13.80;;;15.30;68.00;;;;;;7380739;19;20388;-50
2022/04/30 02:12:07;;;;;;;26.03;13.70;;;15.40;68.00;;;;;;7375748;19;20429;-48
2022/04/30 02:14:42;;;;;;;21.30;14.30;;;15.40;68.30;;;;;;7377436;19;20959;-48
2022/04/30 02:17:13;;;;;;;20.47;12.40;;;15.30;68.50;;;;;;7379016;19;20407;-48
2022/04/30 02:22:30;;;;;;;18.40;13.27;;;15.20;69.40;;;;;;7374509;19;20424;-48
2022/04/30 02:25:09;;;;;;;27.73;15.17;;;15.20;70.00;;;;;;7378873;19;20383;-48
2022/04/30 02:27:42;;;;;;;21.97;12.77;;;15.10;70.40;;;;;;7376928;19;20412;-49
2022/04/30 02:30:14;;;;;;;18.73;13.10;;;15.10;70.40;;;;;;7376721;19;20418;-48
2022/04/30 02:32:44;;;;;;;21.60;15.37;;;15.20;70.10;;;;;;7378155;19;21111;-48
2022/04/30 02:35:17;;;;;;;22.10;13.53;;;15.20;70.00;;;;;;7378048;19;20452;-48
2022/04/30 02:37:48;;;;;;;21.63;13.10;;;15.20;70.00;;;;;;7379634;19;20404;-48
2022/04/30 02:40:24;;;;;;;20.73;13.30;;;15.30;69.90;;;;;;7374537;19;20384;-48
2022/04/30 02:43:06;;;;;;;19.63;13.10;;;15.30;70.10;;;;;;7378629;19;20376;-48
2022/04/30 02:45:38;;;;;;;18.73;13.57;;;15.20;70.10;;;;;;7376011;19;20560;-48
2022/04/30 02:48:12;;;;;;;19.57;12.83;;;15.30;69.90;;;;;;7376020;19;20540;-48
2022/04/30 02:50:42;;;;;;;20.03;12.83;;;15.20;69.70;;;;;;7374916;19;20427;-48
2022/04/30 02:53:11;;;;;;;20.00;12.80;;;15.20;69.80;;;;;;7378210;19;20412;-48
2022/04/30 02:55:46;;;;;;;19.50;12.47;;;15.20;69.80;;;;;;7378214;19;21013;-48
2022/04/30 03:00:57;;;;;;;16.93;12.03;;;15.10;70.40;;;;;;7374566;19;20429;-48
2022/04/30 03:03:51;;;;;;;19.20;12.60;;;15.00;70.60;;;;;;7375712;19;20898;-48
2022/04/30 03:06:21;;;;;;;19.93;12.53;;;15.10;70.80;;;;;;7377412;19;20431;-48
2022/04/30 03:08:54;;;;;;;21.63;13.17;;;15.00;70.80;;;;;;7377710;19;20427;-48
2022/04/30 03:11:26;;;;;;;19.70;13.70;;;15.00;70.90;;;;;;7374471;19;20375;-48
2022/04/30 03:13:56;;;;;;;15.07;11.60;;;14.90;71.90;;;;;;7378760;19;20376;-49
2022/04/30 03:21:55;;;;;;;19.10;14.10;;;15.00;72.10;;;;;;7375291;19;20416;-48
2022/04/30 03:24:27;;;;;;;17.33;12.53;;;15.00;72.20;;;;;;7374186;19;20379;-49
2022/04/30 03:27:01;;;;;;;20.70;13.37;;;15.00;72.10;;;;;;7377469;19;20834;-48
2022/04/30 03:29:31;;;;;;;21.20;14.77;;;15.00;72.20;;;;;;7376619;19;20416;-49
2022/04/30 03:32:04;;;;;;;20.57;13.97;;;15.00;72.70;;;;;;7371094;19;21011;-49
2022/04/30 03:34:36;;;;;;;21.80;14.50;;;14.90;73.50;;;;;;7376064;19;20396;-49
2022/04/30 03:37:06;;;;;;;19.57;13.67;;;14.90;73.80;;;;;;7373325;19;20816;-50
2022/04/30 03:39:35;;;;;;;23.73;14.70;;;14.90;74.30;;;;;;7376446;19;20442;-41
2022/04/30 03:42:08;;;;;;;23.53;16.23;;;14.90;74.30;;;;;;7375231;19;20420;-41
2022/04/30 03:44:38;;;;;;;27.87;16.73;;;14.90;74.70;;;;;;7376789;19;20408;-41
2022/04/30 03:47:10;;;;;;;24.70;15.70;;;14.90;75.20;;;;;;7371347;19;20374;-41
2022/04/30 03:49:40;;;;;;;24.10;15.43;;;14.80;75.70;;;;;;7376715;19;20424;-41
2022/04/30 03:52:12;;;;;;;25.37;15.50;;;14.80;76.00;;;;;;7372059;19;20412;-41
2022/04/30 03:54:42;;;;;;;24.87;16.30;;;14.80;76.50;;;;;;7375969;19;20504;-41
2022/04/30 03:57:16;;;;;;;24.40;16.70;;;14.90;76.70;;;;;;7374591;19;20940;-41
2022/04/30 03:59:49;;;;;;;32.00;17.50;;;14.80;76.90;;;;;;7373404;19;20404;-41
2022/04/30 04:02:18;;;;;;;24.93;17.63;;;14.70;77.30;;;;;;7372082;19;20395;-41
2022/04/30 04:04:48;;;;;;;27.17;17.17;;;14.70;78.00;;;;;;7372881;19;20501;-41
2022/04/30 04:07:17;;;;;;;23.80;16.80;;;14.70;78.20;;;;;;7375552;19;20376;-41
2022/04/30 04:09:47;;;;;;;23.90;16.87;;;14.70;78.10;;;;;;7372606;19;20395;-41
2022/04/30 04:12:19;;;;;;;25.10;17.27;;;14.70;78.20;;;;;;7373927;19;20954;-41
2022/04/30 04:17:42;;;;;;;30.03;18.23;;;14.60;78.50;;;;;;7370891;19;20432;-41
2022/04/30 04:20:13;;;;;;;25.90;18.43;;;14.60;78.50;;;;;;7373082;19;20374;-41
2022/04/30 04:22:45;;;;;;;29.50;17.27;;;14.60;78.70;;;;;;7372254;19;20423;-41
2022/04/30 04:28:01;;;;;;;25.93;17.97;;;14.40;79.70;;;;;;7373446;19;20412;-41
2022/04/30 04:30:33;;;;;;;29.17;18.73;;;14.40;80.40;;;;;;7376127;19;20408;-41
2022/04/30 04:33:05;;;;;;;26.73;18.50;;;14.50;80.80;;;;;;7380180;19;20420;-40
2022/04/30 04:35:37;;;;;;;26.30;16.80;;;14.50;81.00;;;;;;7381823;19;20949;-41
2022/04/30 04:38:10;;;;;;;24.60;17.53;;;14.60;81.20;;;;;;7379114;19;20408;-41
2022/04/30 04:40:41;;;;;;;24.87;16.47;;;14.60;81.30;;;;;;7383070;19;20381;-47
2022/04/30 04:43:15;;;;;;;26.50;18.57;;;14.60;81.40;;;;;;7382679;19;20371;-49
2022/04/30 04:45:47;;;;;;;26.20;17.57;;;14.70;81.20;;;;;;7380085;19;20404;-49
2022/04/30 04:48:19;;;;;;;26.33;16.97;;;14.60;81.30;;;;;;7379653;19;21186;-49
2022/04/30 04:50:49;;;;;;;29.40;17.37;;;14.70;81.00;;;;;;7380542;19;20917;-49
2022/04/30 04:53:18;;;;;;;26.93;17.47;;;14.60;81.40;;;;;;7381934;19;20527;-50
2022/04/30 04:55:50;;;;;;;27.77;16.90;;;14.60;82.40;;;;;;7379563;19;20401;-49
2022/04/30 04:58:22;;;;;;;34.50;18.80;;;14.40;82.70;;;;;;7379520;19;20921;-49
2022/04/30 05:00:52;;;;;;;35.87;19.33;;;14.50;83.40;;;;;;7376755;19;20821;-50
2022/04/30 05:03:22;;;;;;;22.80;16.70;;;14.40;83.80;;;;;;7380714;19;20500;-49
2022/04/30 05:05:52;;;;;;;29.03;18.97;;;14.20;85.00;;;;;;7378194;19;20388;-49
2022/04/30 05:08:23;;;;;;;30.43;16.13;;;14.30;85.60;;;;;;7380636;19;20381;-50
2022/04/30 05:10:55;;;;;;;26.33;18.03;;;14.50;85.50;;;;;;7381307;19;21022;-50
2022/04/30 05:13:27;;;;;;;26.20;17.73;;;14.50;85.20;;;;;;7380331;19;20448;-49
2022/04/30 05:15:57;;;;;;;26.87;17.90;;;14.50;84.30;;;;;;7377579;19;20387;-50
2022/04/30 05:18:26;;;;;;;24.30;17.07;;;14.30;85.60;;;;;;7378633;19;21089;-49
2022/04/30 05:20:58;;;;;;;29.87;18.37;;;14.50;85.80;;;;;;7379610;19;20396;-49
2022/04/30 05:23:27;;;;;;;22.30;16.37;;;14.60;85.60;;;;;;7378438;19;20743;-49
2022/04/30 05:26:02;;;;;;;25.23;17.50;;;14.60;85.30;;;;;;7375320;19;20416;-49
2022/04/30 05:28:36;;;;;;;26.43;16.83;;;14.50;85.90;;;;;;7380411;19;20379;-49
2022/04/30 05:31:08;;;;;;;24.40;17.90;;;14.50;86.80;;;;;;7376618;19;21052;-49
2022/04/30 05:33:40;;;;;;;25.93;19.47;;;14.50;87.40;;;;;;7378587;19;20413;-46
2022/04/30 05:36:12;;;;;;;29.23;19.80;;;14.60;86.40;;;;;;7376815;19;20471;-49
2022/04/30 05:38:44;;;;;;;27.20;16.80;;;14.60;85.30;;;;;;7379672;19;20376;-49
2022/04/30 05:41:16;;;;;;;24.03;17.53;;;14.60;86.20;;;;;;7380013;19;20698;-48
2022/04/30 05:43:52;;;;;;;27.80;18.30;;;14.60;86.20;;;;;;7380944;19;21115;-48
2022/04/30 05:46:24;;;;;;;26.33;17.30;;;14.60;86.30;;;;;;7377162;19;21105;-48
2022/04/30 05:48:56;;;;;;;25.93;18.77;;;14.60;86.20;;;;;;7377820;19;20681;-48
2022/04/30 05:51:28;;;;;;;22.70;17.10;;;14.60;86.70;;;;;;7376825;19;20463;-48
2022/04/30 05:53:58;;;;;;;30.23;16.83;;;14.70;86.80;;;;;;7378521;19;20376;-47
2022/04/30 05:56:30;;;;;;;25.10;18.00;;;14.80;86.40;;;;;;7379609;19;20384;-47
2022/04/30 05:59:02;;;;;;;24.73;17.50;;;14.90;85.80;;;;;;7379332;19;20732;-47
2022/04/30 06:01:31;;;;;;;26.03;16.50;;;14.90;84.50;;;;;;7376149;19;20406;-48
2022/04/30 06:04:02;;;;;;;26.87;16.77;;;14.90;86.00;;;;;;7378470;19;20801;-48
2022/04/30 06:06:33;;;;;;;24.40;18.23;;;14.90;84.90;;;;;;7375422;19;20376;-49
2022/04/30 06:09:08;;;;;;;22.57;16.30;;;14.90;85.60;;;;;;7378023;19;20909;-48
2022/04/30 06:11:39;;;;;;;24.43;16.60;;;14.90;84.70;;;;;;7379800;19;20425;-41
2022/04/30 06:14:14;;;;;;;22.50;16.60;;;14.80;85.80;;;;;;7375792;19;20933;-40
2022/04/30 06:16:43;;;;;;;24.00;15.67;;;14.80;86.00;;;;;;7376622;19;20439;-40
2022/04/30 06:19:13;;;;;;;25.67;16.17;;;14.80;86.90;;;;;;7373234;19;20436;-40
2022/04/30 06:21:43;;;;;;;23.30;16.80;;;15.00;86.60;;;;;;7376836;19;20804;-40
2022/04/30 06:24:15;;;;;;;23.00;16.23;;;15.00;85.90;;;;;;7377593;19;20528;-40
2022/04/30 06:26:49;;;;;;;19.60;15.27;;;15.00;86.40;;;;;;7374728;19;20890;-40
2022/04/30 06:29:23;;;;;;;26.13;15.90;;;15.10;86.80;;;;;;7375912;19;20376;-39
2022/04/30 06:31:56;;;;;;;24.63;16.30;;;15.20;86.10;;;;;;7378127;19;20380;-40
2022/04/30 06:34:28;;;;;;;22.07;16.40;;;15.20;85.70;;;;;;7374309;19;20376;-39
2022/04/30 06:36:57;;;;;;;26.40;16.63;;;15.30;85.90;;;;;;7377321;19;21096;-39
2022/04/30 06:39:31;;;;;;;21.53;15.20;;;15.40;84.70;;;;;;7378056;19;20382;-39
2022/04/30 06:42:01;;;;;;;23.10;15.70;;;15.50;84.80;;;;;;7375713;19;20380;-39
2022/04/30 06:44:33;;;;;;;24.70;16.00;;;15.60;85.10;;;;;;7374493;19;20478;-40
2022/04/30 06:47:03;;;;;;;20.73;14.80;;;15.70;82.50;;;;;;7375589;19;20942;-40
2022/04/30 06:49:36;;;;;;;23.30;15.90;;;15.50;82.90;;;;;;7372490;19;20376;-40
2022/04/30 06:52:08;;;;;;;24.67;16.13;;;15.50;83.60;;;;;;7372874;19;20368;-40
2022/04/30 06:57:25;;;;;;;22.20;15.30;;;15.50;85.30;;;;;;7376455;19;20711;-40
2022/04/30 06:59:57;;;;;;;22.17;14.60;;;15.50;85.10;;;;;;7374633;19;20396;-40
2022/04/30 07:02:30;;;;;;;24.70;16.07;;;15.40;85.00;;;;;;7376657;19;20914;-40
2022/04/30 07:05:04;;;;;;;19.43;13.50;;;15.50;85.30;;;;;;7377619;19;20379;-40
2022/04/30 07:07:34;;;;;;;22.57;15.47;;;15.40;83.10;;;;;;7376190;19;20413;-40
2022/04/30 07:10:03;;;;;;;20.10;15.00;;;15.30;84.20;;;;;;7374212;19;20419;-40
2022/04/30 07:12:35;;;;;;;22.30;15.13;;;15.30;85.40;;;;;;7373933;19;20780;-40
2022/04/30 07:15:14;;;;;;;23.27;14.90;;;15.40;84.60;;;;;;7374745;19;20945;-40
2022/04/30 07:17:43;;;;;;;18.93;15.63;;;15.50;83.50;;;;;;7375206;19;20371;-49
2022/04/30 07:20:18;;;;;;;21.13;13.77;;;15.40;83.10;;;;;;7376519;19;20387;-48
2022/04/30 07:22:50;;;;;;;18.80;14.23;;;15.40;83.50;;;;;;7371208;19;20428;-48
2022/04/30 07:25:19;;;;;;;19.87;15.30;;;15.50;83.70;;;;;;7374738;19;20411;-49
2022/04/30 07:27:48;;;;;;;22.97;14.90;;;15.50;83.20;;;;;;7376819;19;20383;-49
2022/04/30 07:30:23;;;;;;;21.40;15.53;;;15.50;82.40;;;;;;7368715;19;20754;-48
2022/04/30 07:32:54;;;;;;;22.63;15.80;;;15.50;83.30;;;;;;7373540;19;20769;-48
2022/04/30 07:35:24;;;;;;;23.20;15.70;;;15.50;83.20;;;;;;7372528;19;20402;-48
2022/04/30 07:37:53;;;;;;;18.77;13.90;;;15.40;83.30;;;;;;7375580;19;20389;-50
2022/04/30 07:40:25;;;;;;;23.43;14.50;;;15.40;83.30;;;;;;7373847;19;20663;-48
2022/04/30 07:42:57;;;;;;;22.67;15.87;;;15.40;84.00;;;;;;7376204;19;20413;-48
2022/04/30 07:45:32;;;;;;;17.27;13.60;;;15.40;84.40;;;;;;7372631;19;20387;-48
2022/04/30 07:48:04;;;;;;;22.00;14.10;;;15.50;84.10;;;;;;7376601;19;20371;-48
2022/04/30 07:50:38;;;;;;;18.03;13.93;;;15.40;84.40;;;;;;7374903;19;20388;-48
2022/04/30 07:53:10;;;;;;;17.73;13.07;;;15.40;83.40;;;;;;7372406;19;21136;-48
2022/04/30 07:55:41;;;;;;;18.60;13.17;;;15.40;83.00;;;;;;7372491;19;20435;-50
2022/04/30 07:58:11;;;;;;;22.00;14.07;;;15.50;83.30;;;;;;7374035;19;20383;-49
2022/04/30 08:00:45;;;;;;;18.90;13.73;;;15.60;83.40;;;;;;7373266;19;20914;-47
2022/04/30 08:03:17;;;;;;;19.13;14.33;;;15.80;82.80;;;;;;7373918;19;20397;-48
2022/04/30 08:05:46;;;;;;;20.23;14.77;;;15.80;82.60;;;;;;7379875;19;20532;-48
2022/04/30 08:08:20;;;;;;;18.10;13.40;;;15.90;83.40;;;;;;7382172;19;20714;-48
2022/04/30 08:10:52;;;;;;;19.33;14.70;;;15.90;83.30;;;;;;7383470;19;20384;-49
2022/04/30 08:13:24;;;;;;;18.60;14.67;;;16.00;82.00;;;;;;7375619;19;20380;-49
2022/04/30 08:15:56;;;;;;;19.17;12.93;;;16.00;82.20;;;;;;7381564;19;20372;-48
2022/04/30 08:18:29;;;;;;;16.17;13.07;;;16.10;83.00;;;;;;7376770;19;21907;-48
2022/04/30 08:21:00;;;;;;;22.93;13.70;;;16.20;82.80;;;;;;7380703;19;20386;-48
2022/04/30 08:23:33;;;;;;;17.83;13.87;;;16.20;81.60;;;;;;7377229;19;20408;-48
2022/04/30 08:26:06;;;;;;;16.90;12.73;;;16.20;81.90;;;;;;7382286;19;20367;-48
2022/04/30 08:28:38;;;;;;;18.53;13.97;;;16.20;82.80;;;;;;7380127;19;20989;-50
2022/04/30 08:31:12;;;;;;;18.17;13.63;;;16.00;82.50;;;;;;7381329;19;20957;-48
2022/04/30 08:33:42;;;;;;;23.33;13.63;;;16.00;83.10;;;;;;7376892;19;21330;-50
2022/04/30 08:36:11;;;;;;;21.40;13.90;;;15.90;82.70;;;;;;7376771;19;20476;-49
2022/04/30 08:38:41;;;;;;;17.30;12.60;;;15.70;82.90;;;;;;7380999;19;20447;-48
2022/04/30 08:41:16;;;;;;;16.83;12.00;;;15.80;82.80;;;;;;7379911;19;20941;-48
2022/04/30 08:43:50;;;;;;;15.93;12.63;;;15.70;82.10;;;;;;7379482;19;21944;-48
2022/04/30 08:46:23;;;;;;;16.80;12.60;;;15.60;84.50;;;;;;7377726;19;20898;-49
2022/04/30 08:48:55;;;;;;;18.23;12.50;;;15.60;84.00;;;;;;7377654;19;20731;-48
2022/04/30 08:51:26;;;;;;;17.97;11.83;;;15.60;82.90;;;;;;7380506;19;20977;-48
2022/04/30 08:53:56;;;;;;;14.87;12.17;;;15.50;83.00;;;;;;7377594;19;20916;-48
2022/04/30 08:56:28;;;;;;;13.70;11.00;;;15.40;82.20;;;;;;7379698;19;20368;-50
2022/04/30 08:59:02;;;;;;;16.23;13.27;;;15.30;81.50;;;;;;7380061;19;20396;-48
2022/04/30 09:01:47;;;;;;;16.17;12.50;;;15.20;83.30;;;;;;7381574;19;20384;-48
2022/04/30 09:04:17;;;;;;;17.77;12.90;;;15.20;84.30;;;;;;7378426;19;21390;-48
2022/04/30 09:06:51;;;;;;;13.90;10.90;;;15.20;84.40;;;;;;7379593;19;20400;-48
2022/04/30 09:09:25;;;;;;;15.33;11.70;;;15.10;84.30;;;;;;7380975;19;20396;-48
2022/04/30 09:12:07;;;;;;;14.27;11.70;;;15.00;85.40;;;;;;7378534;19;20380;-48
2022/04/30 09:14:37;;;;;;;12.13;10.80;;;15.00;86.50;;;;;;7375854;19;20432;-49
2022/04/30 09:17:13;;;;;;;15.10;12.03;;;14.90;86.50;;;;;;7375299;19;20376;-48
2022/04/30 09:19:52;;;;;;;13.93;11.23;;;15.00;86.60;;;;;;7373605;19;20439;-48
2022/04/30 09:22:33;;;;;;;10.67;9.50;;;15.00;85.60;;;;;;7376312;19;20403;-49
2022/04/30 09:25:04;;;;;;;14.23;10.40;;;15.10;85.40;;;;;;7380727;19;20384;-48
2022/04/30 09:27:46;;;;;;;13.57;11.13;;;15.10;85.70;;;;;;7378653;19;20479;-48
2022/04/30 09:30:19;;;;;;;13.00;10.07;;;15.10;85.10;;;;;;7375993;19;20475;-50
2022/04/30 09:33:03;;;;;;;11.47;9.50;;;15.10;84.10;;;;;;7380165;19;20376;-48
2022/04/30 09:38:21;;;;;;;12.50;9.63;;;15.10;83.40;;;;;;7379676;19;20380;-48
2022/04/30 09:40:57;;;;;;;13.10;9.20;;;15.20;83.80;;;;;;7376507;19;20945;-49
2022/04/30 09:43:32;;;;;;;13.30;9.70;;;15.20;83.30;;;;;;7378493;19;20428;-48
2022/04/30 09:46:06;;;;;;;11.30;8.83;;;15.20;83.50;;;;;;7378543;19;20923;-48
2022/04/30 09:54:06;;;;;;;10.17;9.10;;;15.50;82.60;;;;;;7376114;19;20846;-48
2022/04/30 09:56:38;;;;;;;10.40;9.33;;;15.70;81.90;;;;;;7377261;19;20973;-48
2022/04/30 09:59:10;;;;;;;9.90;8.23;;;15.90;80.20;;;;;;7378064;19;20368;-48
2022/04/30 10:01:41;;;;;;;8.10;7.30;;;16.00;79.40;;;;;;7378473;19;21306;-48
2022/04/30 10:04:17;;;;;;;7.40;6.67;;;16.10;77.50;;;;;;7377718;19;20384;-48
2022/04/30 10:06:51;;;;;;;8.83;6.60;;;16.00;76.70;;;;;;7377061;19;20378;-49
2022/04/30 10:09:23;;;;;;;9.37;8.43;;;15.90;76.80;;;;;;7374345;19;20447;-50
2022/04/30 10:12:09;;;;;;;8.70;7.43;;;16.00;78.70;;;;;;7376139;19;21072;-48
2022/04/30 10:14:53;;;;;;;9.27;7.70;;;16.20;78.50;;;;;;7379255;19;20770;-48
2022/04/30 10:17:26;;;;;;;7.87;7.07;;;16.40;78.50;;;;;;7378680;19;20435;-48
2022/04/30 10:20:06;;;;;;;9.07;7.03;;;16.40;75.20;;;;;;7370619;19;20380;-49
2022/04/30 10:22:35;;;;;;;9.10;8.10;;;16.40;77.30;;;;;;7375480;19;20744;-48
2022/04/30 10:25:07;;;;;;;9.67;7.47;;;16.40;77.80;;;;;;7376148;19;20419;-48
2022/04/30 10:27:42;;;;;;;10.63;7.67;;;16.40;77.00;;;;;;7374316;19;20380;-48
2022/04/30 10:30:23;;;;;;;12.30;9.00;;;16.30;78.40;;;;;;7375328;19;20414;-48
2022/04/30 10:33:01;;;;;;;9.17;8.27;;;16.40;78.90;;;;;;7375336;19;20413;-49
2022/04/30 10:35:40;;;;;;;10.37;7.70;;;16.20;78.00;;;;;;7376404;19;20427;-48
2022/04/30 10:38:13;;;;;;;8.87;8.00;;;16.30;77.90;;;;;;7376550;19;21206;-48
2022/04/30 10:40:50;;;;;;;9.17;7.97;;;16.20;77.80;;;;;;7377128;19;20376;-50
2022/04/30 10:43:31;;;;;;;9.43;7.97;;;16.40;78.30;;;;;;7377548;19;20772;-47
2022/04/30 10:46:05;;;;;;;8.97;7.10;;;16.50;79.50;;;;;;7378799;19;20514;-47
2022/04/30 10:48:35;;;;;;;9.57;7.73;;;16.70;77.30;;;;;;7376191;19;20380;-47
2022/04/30 10:51:09;;;;;;;7.87;7.07;;;16.90;75.70;;;;;;7375149;19;21163;-49
2022/04/30 10:53:43;;;;;;;11.37;8.47;;;16.90;75.60;;;;;;7376793;19;20788;-47
2022/04/30 10:56:13;;;;;;;9.43;7.83;;;16.70;77.90;;;;;;7375583;19;20387;-47
2022/04/30 10:58:44;;;;;;;8.40;7.50;;;16.60;78.40;;;;;;7378922;19;20463;-47
2022/04/30 11:01:14;;;;;;;8.43;7.60;;;16.60;78.30;;;;;;7376554;19;20431;-50
2022/04/30 11:03:48;;;;;;;10.20;7.90;;;16.60;78.10;;;;;;7373156;19;20374;-48
2022/04/30 11:06:24;;;;;;;7.40;6.60;;;16.40;80.00;;;;;;7377218;19;20752;-48
2022/04/30 11:09:00;;;;;;;7.93;7.00;;;16.40;80.10;;;;;;7375994;19;20427;-47
2022/04/30 11:11:33;;;;;;;6.07;5.57;;;16.50;79.30;;;;;;7374707;19;20372;-47
2022/04/30 11:14:06;;;;;;;5.20;4.70;;;16.40;77.10;;;;;;7375853;19;20412;-48
2022/04/30 11:16:37;;;;;;;4.97;4.33;;;16.20;76.40;;;;;;7373850;19;20404;-48
2022/04/30 11:19:10;;;;;;;4.47;4.07;;;16.10;75.90;;;;;;7376357;19;20472;-48
2022/04/30 11:21:44;;;;;;;3.80;3.50;;;15.90;75.00;;;;;;7375910;19;20444;-48
2022/04/30 11:24:14;;;;;;;4.13;3.33;;;15.80;75.20;;;;;;7371519;19;20445;-47
2022/04/30 11:26:46;;;;;;;4.00;3.60;;;15.80;77.50;;;;;;7374788;19;20411;-48
2022/04/30 11:29:16;;;;;;;5.67;4.27;;;15.70;78.50;;;;;;7375829;19;20430;-48
2022/04/30 11:31:46;;;;;;;3.60;3.30;;;15.50;79.90;;;;;;7377639;19;21027;-47
2022/04/30 11:34:17;;;;;;;3.97;3.57;;;15.90;80.20;;;;;;7371617;19;20389;-47
2022/04/30 11:36:51;;;;;;;4.33;3.93;;;16.20;78.90;;;;;;7372269;19;20447;-47
2022/04/30 11:39:24;;;;;;;4.87;3.00;;;16.80;78.50;;;;;;7374497;19;20426;-47
2022/04/30 11:41:56;;;;;;;4.23;3.83;;;17.10;70.80;;;;;;7384611;19;20380;-47
2022/04/30 11:44:28;;;;;;;4.93;4.03;;;17.20;71.70;;;;;;7382550;19;20499;-47
2022/04/30 11:46:58;;;;;;;4.40;4.00;;;17.30;70.70;;;;;;7381277;19;20379;-47
2022/04/30 11:49:32;;;;;;;179.23;29.30;;;17.30;68.60;;;;;;7380927;19;20719;-47
2022/04/30 11:52:06;;;;;;;31.40;9.43;;;17.40;69.20;;;;;;7384174;19;20376;-49
2022/04/30 11:54:40;;;;;;;7.23;4.90;;;17.50;68.30;;;;;;7379177;19;20392;-49
2022/04/30 11:57:10;;;;;;;10.33;5.10;;;17.50;67.70;;;;;;7381030;19;20435;-47
2022/04/30 11:59:41;;;;;;;7.87;4.43;;;17.60;68.60;;;;;;7384515;19;21070;-49
2022/04/30 12:02:17;;;;;;;4.40;4.00;;;17.60;68.60;;;;;;7383865;19;20378;-47
2022/04/30 12:04:48;;;;;;;3.80;3.50;;;17.50;64.80;;;;;;7380736;19;20969;-47
2022/04/30 12:07:21;;;;;;;4.27;3.60;;;17.20;66.10;;;;;;7382981;19;20477;-47
2022/04/30 12:09:53;;;;;;;4.30;3.90;;;17.10;67.90;;;;;;7380175;19;20458;-47
2022/04/30 12:12:23;;;;;;;3.40;3.10;;;17.60;67.20;;;;;;7381220;19;20411;-47
2022/04/30 12:14:57;;;;;;;3.97;3.57;;;19.00;63.00;;;;;;7377904;19;20392;-47
2022/04/30 12:17:30;;;;;;;3.70;3.40;;;19.60;59.70;;;;;;7383113;19;20372;-48
2022/04/30 12:25:45;;;;;;;4.23;3.83;;;19.30;58.90;;;;;;7379661;19;20408;-50
2022/04/30 12:28:15;;;;;;;4.50;4.10;;;18.50;60.70;;;;;;7380277;19;20367;-49
2022/04/30 12:30:53;;;;;;;3.80;3.50;;;18.50;61.70;;;;;;7382190;19;20990;-47
2022/04/30 12:33:28;;;;;;;4.07;3.67;;;19.30;60.00;;;;;;7379637;19;20376;-48
2022/04/30 12:35:59;;;;;;;4.60;4.20;;;20.20;56.70;;;;;;7380996;19;20910;-48
2022/04/30 12:38:36;;;;;;;4.17;3.70;;;20.60;55.60;;;;;;7377723;19;21400;-48
2022/04/30 12:41:10;;;;;;;5.70;4.03;;;20.30;54.80;;;;;;7382437;19;20383;-48
2022/04/30 12:43:42;;;;;;;4.47;4.07;;;19.50;55.50;;;;;;7382716;19;20376;-48
2022/04/30 12:46:21;;;;;;;5.13;4.50;;;18.90;57.00;;;;;;7373937;19;20429;-48
2022/04/30 12:48:54;;;;;;;5.10;4.47;;;18.70;57.50;;;;;;7380624;19;20376;-48
2022/04/30 12:51:29;;;;;;;3.77;3.47;;;18.20;58.30;;;;;;7378169;19;20933;-48
2022/04/30 12:54:03;;;;;;;4.60;4.07;;;18.20;57.70;;;;;;7376154;19;20380;-48
2022/04/30 12:56:37;;;;;;;4.67;4.20;;;17.90;58.70;;;;;;7381695;19;20458;-48
2022/04/30 12:59:07;;;;;;;4.90;4.40;;;17.80;59.50;;;;;;7381884;19;20512;-48
2022/04/30 13:01:42;;;;;;;4.67;4.23;;;17.90;59.40;;;;;;7382611;19;20360;-48
2022/04/30 13:04:12;;;;;;;8.53;5.40;;;17.70;58.60;;;;;;7376570;19;20380;-48
2022/04/30 13:06:43;;;;;;;3.80;3.40;;;17.70;58.70;;;;;;7373686;19;20380;-48
2022/04/30 13:14:39;;;;;;;3.83;3.53;;;17.50;58.10;;;;;;7377066;19;21036;-48
2022/04/30 13:17:08;;;;;;;5.10;4.60;;;17.40;58.90;;;;;;7353264;19;20715;-49
2022/04/30 13:19:42;;;;;;;7.73;5.13;;;17.30;60.30;;;;;;7374617;19;20439;-48
2022/04/30 13:22:14;;;;;;;5.60;5.10;;;17.20;60.40;;;;;;7376717;19;20451;-48
2022/04/30 13:24:51;;;;;;;7.90;6.73;;;17.20;61.60;;;;;;7378100;19;20379;-48
2022/04/30 13:27:25;;;;;;;7.50;6.50;;;17.20;61.10;;;;;;7379698;19;20750;-48
2022/04/30 13:29:55;;;;;;;7.20;6.50;;;17.10;61.50;;;;;;7378851;19;21021;-48
2022/04/30 13:32:28;;;;;;;8.57;7.67;;;16.70;63.80;;;;;;7378590;19;20760;-47
2022/04/30 13:34:57;;;;;;;8.70;7.73;;;16.60;64.60;;;;;;7378285;19;20412;-48
2022/04/30 13:37:27;;;;;;;8.80;7.90;;;16.50;64.90;;;;;;7377075;19;20385;-48
2022/04/30 13:39:59;;;;;;;11.80;8.90;;;16.60;65.30;;;;;;7380043;19;20412;-48
2022/04/30 13:42:28;;;;;;;10.93;8.80;;;16.50;65.10;;;;;;7377071;19;20393;-47
2022/04/30 13:45:03;;;;;;;11.97;8.77;;;16.40;65.30;;;;;;7380045;19;20383;-49